sensor_id;sensor_type;location;lat;lon;timestamp;pressure;altitude;pressure_sealevel;temperature;humidity
69955;BME280;57279;55.912;37.490;2022-10-17T00:00:14;100446.09;;;7.00;57.44
69955;BME280;57279;55.912;37.490;2022-10-17T00:02:40;100430.63;;;6.96;57.69
69955;BME280;57279;55.912;37.490;2022-10-17T00:05:05;100434.56;;;6.87;57.83
69955;BME280;57279;55.912;37.490;2022-10-17T00:07:31;100433.72;;;6.93;57.84
69955;BME280;57279;55.912;37.490;2022-10-17T00:09:57;100426.94;;;6.83;57.99
69955;BME280;57279;55.912;37.490;2022-10-17T00:12:22;100424.25;;;6.83;57.85
69955;BME280;57279;55.912;37.490;2022-10-17T00:14:48;100424.63;;;6.87;58.01
69955;BME280;57279;55.912;37.490;2022-10-17T00:17:13;100416.63;;;6.80;57.79
69955;BME280;57279;55.912;37.490;2022-10-17T00:19:40;100419.09;;;6.82;58.38
69955;BME280;57279;55.912;37.490;2022-10-17T00:22:05;100418.91;;;6.83;58.15
69955;BME280;57279;55.912;37.490;2022-10-17T00:24:31;100402.16;;;6.75;58.20
69955;BME280;57279;55.912;37.490;2022-10-17T00:26:56;100410.22;;;6.75;58.11
69955;BME280;57279;55.912;37.490;2022-10-17T00:29:22;100404.66;;;6.70;58.14
69955;BME280;57279;55.912;37.490;2022-10-17T00:31:48;100398.88;;;6.66;58.02
69955;BME280;57279;55.912;37.490;2022-10-17T00:34:13;100390.63;;;6.74;57.94
69955;BME280;57279;55.912;37.490;2022-10-17T00:36:39;100381.50;;;6.82;58.19
69955;BME280;57279;55.912;37.490;2022-10-17T00:39:04;100394.72;;;6.83;57.76
69955;BME280;57279;55.912;37.490;2022-10-17T00:41:32;100378.63;;;6.83;58.01
69955;BME280;57279;55.912;37.490;2022-10-17T00:44:05;100383.19;;;6.76;58.02
69955;BME280;57279;55.912;37.490;2022-10-17T00:46:34;100382.97;;;6.78;58.22
69955;BME280;57279;55.912;37.490;2022-10-17T00:49:06;100365.63;;;6.67;58.43
69955;BME280;57279;55.912;37.490;2022-10-17T00:51:40;100366.22;;;6.76;58.14
69955;BME280;57279;55.912;37.490;2022-10-17T00:54:08;100357.34;;;6.82;58.04
69955;BME280;57279;55.912;37.490;2022-10-17T00:56:35;100367.03;;;6.83;57.84
69955;BME280;57279;55.912;37.490;2022-10-17T00:59:01;100351.34;;;6.87;58.55
69955;BME280;57279;55.912;37.490;2022-10-17T01:01:27;100358.94;;;6.96;57.93
69955;BME280;57279;55.912;37.490;2022-10-17T01:03:53;100350.69;;;6.98;57.62
69955;BME280;57279;55.912;37.490;2022-10-17T01:06:18;100342.22;;;7.01;57.76
69955;BME280;57279;55.912;37.490;2022-10-17T01:08:44;100341.81;;;6.97;57.68
69955;BME280;57279;55.912;37.490;2022-10-17T01:13:50;100330.25;;;6.97;57.67
69955;BME280;57279;55.912;37.490;2022-10-17T01:19:03;100322.81;;;6.99;57.67
69955;BME280;57279;55.912;37.490;2022-10-17T01:21:39;100319.94;;;6.94;57.46
69955;BME280;57279;55.912;37.490;2022-10-17T01:29:55;100312.06;;;6.99;57.75
69955;BME280;57279;55.912;37.490;2022-10-17T01:32:33;100314.53;;;7.00;57.71
69955;BME280;57279;55.912;37.490;2022-10-17T01:40:35;100298.78;;;7.11;57.71
69955;BME280;57279;55.912;37.490;2022-10-17T01:43:15;100286.47;;;6.96;57.61
69955;BME280;57279;55.912;37.490;2022-10-17T01:45:48;100274.69;;;6.97;57.39
69955;BME280;57279;55.912;37.490;2022-10-17T01:48:24;100275.72;;;6.96;57.84
69955;BME280;57279;55.912;37.490;2022-10-17T01:50:58;100269.31;;;6.97;58.00
69955;BME280;57279;55.912;37.490;2022-10-17T01:53:30;100274.69;;;6.97;57.88
69955;BME280;57279;55.912;37.490;2022-10-17T01:55:59;100269.75;;;6.94;57.74
69955;BME280;57279;55.912;37.490;2022-10-17T01:58:31;100272.03;;;6.91;57.95
69955;BME280;57279;55.912;37.490;2022-10-17T02:01:02;100272.03;;;6.91;57.79
69955;BME280;57279;55.912;37.490;2022-10-17T02:03:31;100268.31;;;6.92;58.16
69955;BME280;57279;55.912;37.490;2022-10-17T02:05:59;100265.63;;;6.92;58.16
69955;BME280;57279;55.912;37.490;2022-10-17T02:08:47;100270.81;;;6.87;58.19
69955;BME280;57279;55.912;37.490;2022-10-17T02:11:20;100282.81;;;6.77;58.07
69955;BME280;57279;55.912;37.490;2022-10-17T02:14:03;100261.34;;;6.77;58.14
69955;BME280;57279;55.912;37.490;2022-10-17T02:27:03;100273.59;;;6.67;58.65
69955;BME280;57279;55.912;37.490;2022-10-17T02:29:56;100270.50;;;6.63;58.82
69955;BME280;57279;55.912;37.490;2022-10-17T02:35:00;100264.69;;;6.66;59.12
69955;BME280;57279;55.912;37.490;2022-10-17T02:37:28;100263.66;;;6.67;58.71
69955;BME280;57279;55.912;37.490;2022-10-17T02:39:58;100254.16;;;6.71;58.64
69955;BME280;57279;55.912;37.490;2022-10-17T02:42:26;100252.50;;;6.70;58.66
69955;BME280;57279;55.912;37.490;2022-10-17T02:44:53;100255.41;;;6.69;58.62
69955;BME280;57279;55.912;37.490;2022-10-17T02:47:38;100242.19;;;6.67;58.68
69955;BME280;57279;55.912;37.490;2022-10-17T02:50:09;100237.84;;;6.66;59.15
69955;BME280;57279;55.912;37.490;2022-10-17T02:52:51;100235.81;;;6.61;59.17
69955;BME280;57279;55.912;37.490;2022-10-17T02:55:24;100233.53;;;6.65;59.18
69955;BME280;57279;55.912;37.490;2022-10-17T02:58:02;100231.25;;;6.62;59.23
69955;BME280;57279;55.912;37.490;2022-10-17T03:00:31;100241.78;;;6.70;59.30
69955;BME280;57279;55.912;37.490;2022-10-17T03:02:57;100232.06;;;6.69;58.84
69955;BME280;57279;55.912;37.490;2022-10-17T03:05:26;100230.81;;;6.72;58.74
69955;BME280;57279;55.912;37.490;2022-10-17T03:07:53;100227.72;;;6.68;58.96
69955;BME280;57279;55.912;37.490;2022-10-17T03:10:20;100230.00;;;6.71;59.01
69955;BME280;57279;55.912;37.490;2022-10-17T03:12:46;100226.09;;;6.67;58.84
69955;BME280;57279;55.912;37.490;2022-10-17T03:15:13;100218.03;;;6.67;59.12
69955;BME280;57279;55.912;37.490;2022-10-17T03:17:39;100213.50;;;6.68;58.88
69955;BME280;57279;55.912;37.490;2022-10-17T03:20:07;100205.19;;;6.76;59.11
69955;BME280;57279;55.912;37.490;2022-10-17T03:22:32;100202.13;;;6.72;58.87
69955;BME280;57279;55.912;37.490;2022-10-17T03:25:00;100208.72;;;6.76;59.02
69955;BME280;57279;55.912;37.490;2022-10-17T03:27:28;100208.09;;;6.74;58.74
69955;BME280;57279;55.912;37.490;2022-10-17T03:29:53;100201.72;;;6.69;59.10
69955;BME280;57279;55.912;37.490;2022-10-17T03:32:19;100200.28;;;6.66;59.18
69955;BME280;57279;55.912;37.490;2022-10-17T03:34:45;100199.88;;;6.69;59.09
69955;BME280;57279;55.912;37.490;2022-10-17T03:37:11;100196.78;;;6.65;58.73
69955;BME280;57279;55.912;37.490;2022-10-17T03:39:38;100187.72;;;6.67;59.13
69955;BME280;57279;55.912;37.490;2022-10-17T03:42:04;100183.94;;;6.74;59.18
69955;BME280;57279;55.912;37.490;2022-10-17T03:44:31;100184.38;;;6.71;58.96
69955;BME280;57279;55.912;37.490;2022-10-17T03:46:58;100174.44;;;6.72;59.12
69955;BME280;57279;55.912;37.490;2022-10-17T03:49:24;100179.19;;;6.76;59.13
69955;BME280;57279;55.912;37.490;2022-10-17T03:51:50;100175.66;;;6.76;59.45
69955;BME280;57279;55.912;37.490;2022-10-17T03:54:18;100160.56;;;6.81;58.83
69955;BME280;57279;55.912;37.490;2022-10-17T03:56:43;100162.88;;;6.78;59.05
69955;BME280;57279;55.912;37.490;2022-10-17T03:59:14;100151.69;;;6.81;58.97
69955;BME280;57279;55.912;37.490;2022-10-17T04:01:43;100151.69;;;6.81;58.78
69955;BME280;57279;55.912;37.490;2022-10-17T04:04:11;100147.31;;;6.87;58.82
69955;BME280;57279;55.912;37.490;2022-10-17T04:06:38;100153.28;;;6.95;59.00
69955;BME280;57279;55.912;37.490;2022-10-17T04:09:05;100153.28;;;6.95;58.72
69955;BME280;57279;55.912;37.490;2022-10-17T04:11:39;100143.75;;;6.93;58.80
69955;BME280;57279;55.912;37.490;2022-10-17T04:14:06;100146.63;;;6.98;58.86
69955;BME280;57279;55.912;37.490;2022-10-17T04:16:31;100138.78;;;6.96;58.71
69955;BME280;57279;55.912;37.490;2022-10-17T04:19:06;100143.34;;;6.96;58.48
69955;BME280;57279;55.912;37.490;2022-10-17T04:21:39;100137.56;;;6.99;58.98
69955;BME280;57279;55.912;37.490;2022-10-17T04:24:09;100133.00;;;6.99;58.36
69955;BME280;57279;55.912;37.490;2022-10-17T04:27:01;100128.03;;;7.03;58.69
69955;BME280;57279;55.912;37.490;2022-10-17T04:29:29;100130.91;;;7.01;58.71
69955;BME280;57279;55.912;37.490;2022-10-17T04:32:15;100110.84;;;7.04;58.17
69955;BME280;57279;55.912;37.490;2022-10-17T04:34:47;100112.72;;;7.03;58.05
69955;BME280;57279;55.912;37.490;2022-10-17T04:37:14;100118.47;;;7.07;58.27
69955;BME280;57279;55.912;37.490;2022-10-17T04:39:40;100121.34;;;7.12;58.22
69955;BME280;57279;55.912;37.490;2022-10-17T04:42:07;100123.78;;;7.14;57.89
69955;BME280;57279;55.912;37.490;2022-10-17T04:44:32;100117.00;;;7.11;58.00
69955;BME280;57279;55.912;37.490;2022-10-17T04:47:00;100128.81;;;7.10;58.06
69955;BME280;57279;55.912;37.490;2022-10-17T04:49:26;100123.16;;;7.18;57.90
69955;BME280;57279;55.912;37.490;2022-10-17T04:51:56;100122.34;;;7.18;57.57
69955;BME280;57279;55.912;37.490;2022-10-17T04:54:42;100123.03;;;7.07;58.33
69955;BME280;57279;55.912;37.490;2022-10-17T04:57:09;100115.13;;;7.12;58.21
69955;BME280;57279;55.912;37.490;2022-10-17T04:59:35;100115.97;;;7.12;58.84
69955;BME280;57279;55.912;37.490;2022-10-17T05:02:15;100117.78;;;7.18;59.68
69955;BME280;57279;55.912;37.490;2022-10-17T05:04:41;100108.03;;;7.24;60.26
69955;BME280;57279;55.912;37.490;2022-10-17T05:07:08;100105.94;;;7.26;60.11
69955;BME280;57279;55.912;37.490;2022-10-17T05:09:54;100114.59;;;7.28;60.26
69955;BME280;57279;55.912;37.490;2022-10-17T05:12:21;100097.50;;;7.22;60.27
69955;BME280;57279;55.912;37.490;2022-10-17T05:14:47;100093.31;;;7.27;60.08
69955;BME280;57279;55.912;37.490;2022-10-17T05:17:13;100087.94;;;7.27;59.49
69955;BME280;57279;55.912;37.490;2022-10-17T05:19:38;100093.03;;;7.35;60.14
69955;BME280;57279;55.912;37.490;2022-10-17T05:22:05;100102.56;;;7.31;59.63
69955;BME280;57279;55.912;37.490;2022-10-17T05:24:32;100104.03;;;7.33;59.40
69955;BME280;57279;55.912;37.490;2022-10-17T05:26:57;100097.38;;;7.36;59.09
69955;BME280;57279;55.912;37.490;2022-10-17T05:29:23;100108.13;;;7.36;59.19
69955;BME280;57279;55.912;37.490;2022-10-17T05:31:54;100082.47;;;7.40;59.10
69955;BME280;57279;55.912;37.490;2022-10-17T05:34:19;100085.53;;;7.43;58.71
69955;BME280;57279;55.912;37.490;2022-10-17T05:36:45;100082.03;;;7.43;58.94
69955;BME280;57279;55.912;37.490;2022-10-17T05:39:12;100070.56;;;7.54;59.07
69955;BME280;57279;55.912;37.490;2022-10-17T05:41:39;100071.38;;;7.55;58.61
69955;BME280;57279;55.912;37.490;2022-10-17T05:44:05;100064.72;;;7.57;58.40
69955;BME280;57279;55.912;37.490;2022-10-17T05:46:39;100061.59;;;7.60;57.93
69955;BME280;57279;55.912;37.490;2022-10-17T05:49:05;100060.41;;;7.56;58.37
69955;BME280;57279;55.912;37.490;2022-10-17T05:51:32;100071.56;;;7.53;57.65
69955;BME280;57279;55.912;37.490;2022-10-17T05:53:59;100066.00;;;7.55;57.89
69955;BME280;57279;55.912;37.490;2022-10-17T05:56:26;100064.56;;;7.52;57.99
69955;BME280;57279;55.912;37.490;2022-10-17T05:58:53;100072.94;;;7.62;57.91
69955;BME280;57279;55.912;37.490;2022-10-17T06:01:32;100077.41;;;7.69;57.88
69955;BME280;57279;55.912;37.490;2022-10-17T06:03:58;100092.50;;;7.70;57.34
69955;BME280;57279;55.912;37.490;2022-10-17T06:06:24;100087.72;;;7.72;57.35
69955;BME280;57279;55.912;37.490;2022-10-17T06:08:50;100089.00;;;7.69;57.43
69955;BME280;57279;55.912;37.490;2022-10-17T06:11:21;100085.63;;;7.74;57.33
69955;BME280;57279;55.912;37.490;2022-10-17T06:13:46;100080.66;;;7.77;57.58
69955;BME280;57279;55.912;37.490;2022-10-17T06:16:19;100073.09;;;7.86;57.68
69955;BME280;57279;55.912;37.490;2022-10-17T06:18:44;100069.53;;;7.92;57.36
69955;BME280;57279;55.912;37.490;2022-10-17T06:21:14;100065.16;;;7.91;57.44
69955;BME280;57279;55.912;37.490;2022-10-17T06:23:44;100074.06;;;7.92;57.87
69955;BME280;57279;55.912;37.490;2022-10-17T06:26:15;100073.63;;;7.95;57.56
69955;BME280;57279;55.912;37.490;2022-10-17T06:28:41;100072.88;;;8.06;57.73
69955;BME280;57279;55.912;37.490;2022-10-17T06:31:08;100075.13;;;8.09;56.96
69955;BME280;57279;55.912;37.490;2022-10-17T06:33:34;100067.03;;;8.09;57.08
69955;BME280;57279;55.912;37.490;2022-10-17T06:36:02;100054.41;;;8.10;57.56
69955;BME280;57279;55.912;37.490;2022-10-17T06:38:29;100033.47;;;8.12;57.29
69955;BME280;57279;55.912;37.490;2022-10-17T06:41:11;100023.03;;;8.03;57.21
69955;BME280;57279;55.912;37.490;2022-10-17T06:43:40;100019.75;;;8.01;57.41
69955;BME280;57279;55.912;37.490;2022-10-17T06:46:27;100022.47;;;8.01;57.46
69955;BME280;57279;55.912;37.490;2022-10-17T06:48:59;100026.91;;;8.08;57.68
69955;BME280;57279;55.912;37.490;2022-10-17T06:51:36;100027.13;;;8.25;57.19
69955;BME280;57279;55.912;37.490;2022-10-17T06:54:05;100026.19;;;8.31;57.12
69955;BME280;57279;55.912;37.490;2022-10-17T06:56:48;100022.34;;;8.38;57.10
69955;BME280;57279;55.912;37.490;2022-10-17T06:59:21;100022.59;;;8.37;56.83
69955;BME280;57279;55.912;37.490;2022-10-17T07:01:51;100030.00;;;8.41;55.98
69955;BME280;57279;55.912;37.490;2022-10-17T07:04:17;100026.09;;;8.37;56.31
69955;BME280;57279;55.912;37.490;2022-10-17T07:06:42;100040.47;;;8.31;56.45
69955;BME280;57279;55.912;37.490;2022-10-17T07:09:14;100035.78;;;8.27;56.41
69955;BME280;57279;55.912;37.490;2022-10-17T07:11:41;100027.47;;;8.28;56.27
69955;BME280;57279;55.912;37.490;2022-10-17T07:14:07;100022.81;;;8.35;56.42
69955;BME280;57279;55.912;37.490;2022-10-17T07:16:33;100025.81;;;8.27;56.15
69955;BME280;57279;55.912;37.490;2022-10-17T07:19:19;100011.78;;;8.25;56.46
69955;BME280;57279;55.912;37.490;2022-10-17T07:21:45;100026.75;;;8.21;56.54
69955;BME280;57279;55.912;37.490;2022-10-17T07:24:11;100014.88;;;8.10;56.81
69955;BME280;57279;55.912;37.490;2022-10-17T07:26:40;100029.06;;;8.17;56.89
69955;BME280;57279;55.912;37.490;2022-10-17T07:29:05;100015.38;;;8.19;56.98
69955;BME280;57279;55.912;37.490;2022-10-17T07:31:38;100003.84;;;8.30;56.73
69955;BME280;57279;55.912;37.490;2022-10-17T07:34:04;99991.00;;;8.32;56.70
69955;BME280;57279;55.912;37.490;2022-10-17T07:36:29;99989.91;;;8.21;57.13
69955;BME280;57279;55.912;37.490;2022-10-17T07:38:56;99987.72;;;8.30;57.30
69955;BME280;57279;55.912;37.490;2022-10-17T07:41:23;99996.09;;;8.22;57.79
69955;BME280;57279;55.912;37.490;2022-10-17T07:43:49;99984.19;;;8.30;58.21
69955;BME280;57279;55.912;37.490;2022-10-17T07:46:18;99991.44;;;8.29;58.64
69955;BME280;57279;55.912;37.490;2022-10-17T07:48:44;99995.50;;;8.20;59.15
69955;BME280;57279;55.912;37.490;2022-10-17T07:51:10;100002.91;;;8.25;59.61
69955;BME280;57279;55.912;37.490;2022-10-17T07:53:37;100008.97;;;8.32;60.14
69955;BME280;57279;55.912;37.490;2022-10-17T07:56:09;100018.72;;;8.33;59.74
69955;BME280;57279;55.912;37.490;2022-10-17T07:58:36;100019.25;;;8.41;59.65
69955;BME280;57279;55.912;37.490;2022-10-17T08:01:07;100027.22;;;8.30;59.48
69955;BME280;57279;55.912;37.490;2022-10-17T08:03:34;100012.16;;;8.29;59.42
69955;BME280;57279;55.912;37.490;2022-10-17T08:06:00;100023.22;;;8.20;59.49
69955;BME280;57279;55.912;37.490;2022-10-17T08:08:26;100009.22;;;8.30;59.92
69955;BME280;57279;55.912;37.490;2022-10-17T08:10:54;100013.69;;;8.36;59.90
69955;BME280;57279;55.912;37.490;2022-10-17T08:13:21;99999.84;;;8.51;59.74
69955;BME280;57279;55.912;37.490;2022-10-17T08:15:47;99999.13;;;8.44;59.40
69955;BME280;57279;55.912;37.490;2022-10-17T08:18:16;99998.19;;;8.50;59.25
69955;BME280;57279;55.912;37.490;2022-10-17T08:20:42;100006.38;;;8.44;59.27
69955;BME280;57279;55.912;37.490;2022-10-17T08:23:08;100005.09;;;8.46;59.65
69955;BME280;57279;55.912;37.490;2022-10-17T08:25:36;100005.03;;;8.34;59.63
69955;BME280;57279;55.912;37.490;2022-10-17T08:28:02;100011.19;;;8.23;59.67
69955;BME280;57279;55.912;37.490;2022-10-17T08:30:27;100001.75;;;8.32;60.20
69955;BME280;57279;55.912;37.490;2022-10-17T08:32:55;100001.50;;;8.34;60.23
69955;BME280;57279;55.912;37.490;2022-10-17T08:35:20;99978.25;;;8.39;59.44
69955;BME280;57279;55.912;37.490;2022-10-17T08:37:46;99970.84;;;8.53;59.65
69955;BME280;57279;55.912;37.490;2022-10-17T08:40:24;99976.22;;;8.65;59.06
69955;BME280;57279;55.912;37.490;2022-10-17T08:45:36;99962.44;;;8.97;58.46
69955;BME280;57279;55.912;37.490;2022-10-17T08:48:12;99967.59;;;9.10;58.63
69955;BME280;57279;55.912;37.490;2022-10-17T08:50:45;99992.53;;;9.06;58.16
69955;BME280;57279;55.912;37.490;2022-10-17T08:53:27;99983.88;;;8.92;58.40
69955;BME280;57279;55.912;37.490;2022-10-17T08:55:55;99992.53;;;8.82;59.02
69955;BME280;57279;55.912;37.490;2022-10-17T08:58:24;99970.47;;;8.61;60.95
69955;BME280;57279;55.912;37.490;2022-10-17T09:03:41;99971.91;;;8.34;64.54
69955;BME280;57279;55.912;37.490;2022-10-17T09:16:50;100021.94;;;7.93;69.07
69955;BME280;57279;55.912;37.490;2022-10-17T09:19:27;100003.81;;;7.88;69.09
69955;BME280;57279;55.912;37.490;2022-10-17T09:21:58;100010.22;;;7.87;69.19
69955;BME280;57279;55.912;37.490;2022-10-17T09:29:48;99958.38;;;7.80;69.15
69955;BME280;57279;55.912;37.490;2022-10-17T09:32:21;99982.38;;;7.81;69.75
69955;BME280;57279;55.912;37.490;2022-10-17T09:34:47;99977.50;;;7.90;69.92
69955;BME280;57279;55.912;37.490;2022-10-17T09:37:13;99979.72;;;7.93;69.07
69955;BME280;57279;55.912;37.490;2022-10-17T09:39:41;99977.94;;;7.87;69.39
69955;BME280;57279;55.912;37.490;2022-10-17T09:42:12;99970.25;;;7.91;69.61
69955;BME280;57279;55.912;37.490;2022-10-17T09:44:49;99948.81;;;7.84;69.87
69955;BME280;57279;55.912;37.490;2022-10-17T09:50:25;99953.41;;;7.95;69.86
69955;BME280;57279;55.912;37.490;2022-10-17T09:52:52;99945.84;;;7.92;69.82
69955;BME280;57279;55.912;37.490;2022-10-17T09:55:29;99952.25;;;7.91;70.46
69955;BME280;57279;55.912;37.490;2022-10-17T09:58:00;99951.50;;;7.84;70.38
69955;BME280;57279;55.912;37.490;2022-10-17T10:00:32;99942.00;;;7.70;70.57
69955;BME280;57279;55.912;37.490;2022-10-17T10:03:21;99932.41;;;7.74;70.85
69955;BME280;57279;55.912;37.490;2022-10-17T10:06:15;99921.53;;;7.69;71.48
69955;BME280;57279;55.912;37.490;2022-10-17T10:08:56;99923.91;;;7.77;71.25
69955;BME280;57279;55.912;37.490;2022-10-17T10:16:46;99924.91;;;7.94;71.68
69955;BME280;57279;55.912;37.490;2022-10-17T10:22:03;99904.56;;;7.98;71.03
69955;BME280;57279;55.912;37.490;2022-10-17T10:24:30;99916.09;;;7.87;71.00
69955;BME280;57279;55.912;37.490;2022-10-17T10:26:59;99920.84;;;7.73;71.29
69955;BME280;57279;55.912;37.490;2022-10-17T10:29:32;99912.69;;;7.80;72.11
69955;BME280;57279;55.912;37.490;2022-10-17T10:32:35;99914.19;;;7.76;71.89
69955;BME280;57279;55.912;37.490;2022-10-17T10:35:07;99899.47;;;7.78;71.96
69955;BME280;57279;55.912;37.490;2022-10-17T10:37:43;99898.00;;;7.82;71.73
69955;BME280;57279;55.912;37.490;2022-10-17T10:42:46;99893.47;;;8.07;71.89
69955;BME280;57279;55.912;37.490;2022-10-17T10:47:37;99880.75;;;8.02;71.92
69955;BME280;57279;55.912;37.490;2022-10-17T10:50:15;99875.59;;;8.00;71.57
69955;BME280;57279;55.912;37.490;2022-10-17T10:52:46;99862.59;;;7.97;71.54
69955;BME280;57279;55.912;37.490;2022-10-17T10:55:26;99887.84;;;7.96;71.51
69955;BME280;57279;55.912;37.490;2022-10-17T10:57:58;99881.53;;;7.91;71.88
69955;BME280;57279;55.912;37.490;2022-10-17T11:00:26;99883.25;;;7.85;71.97
69955;BME280;57279;55.912;37.490;2022-10-17T11:03:10;99878.47;;;7.87;71.87
69955;BME280;57279;55.912;37.490;2022-10-17T11:05:40;99874.63;;;7.95;72.23
69955;BME280;57279;55.912;37.490;2022-10-17T11:08:29;99889.81;;;7.89;72.50
69955;BME280;57279;55.912;37.490;2022-10-17T11:14:27;99893.44;;;7.83;72.57
69955;BME280;57279;55.912;37.490;2022-10-17T11:17:11;99889.81;;;7.89;72.76
69955;BME280;57279;55.912;37.490;2022-10-17T11:19:44;99888.06;;;7.95;72.74
69955;BME280;57279;55.912;37.490;2022-10-17T11:22:33;99895.94;;;7.96;72.56
69955;BME280;57279;55.912;37.490;2022-10-17T11:25:04;99882.94;;;8.05;72.51
69955;BME280;57279;55.912;37.490;2022-10-17T11:27:33;99870.81;;;8.14;72.79
69955;BME280;57279;55.912;37.490;2022-10-17T11:29:59;99869.56;;;8.17;72.43
69955;BME280;57279;55.912;37.490;2022-10-17T11:32:29;99855.03;;;8.06;72.89
69955;BME280;57279;55.912;37.490;2022-10-17T11:35:04;99854.31;;;7.99;73.31
69955;BME280;57279;55.912;37.490;2022-10-17T11:37:38;99845.19;;;7.88;73.58
69955;BME280;57279;55.912;37.490;2022-10-17T11:40:32;99837.44;;;7.92;73.80
69955;BME280;57279;55.912;37.490;2022-10-17T11:43:10;99829.63;;;7.90;73.74
69955;BME280;57279;55.912;37.490;2022-10-17T11:45:48;99832.78;;;7.87;73.98
69955;BME280;57279;55.912;37.490;2022-10-17T11:48:40;99826.81;;;7.85;74.24
69955;BME280;57279;55.912;37.490;2022-10-17T11:51:11;99822.34;;;7.79;74.49
69955;BME280;57279;55.912;37.490;2022-10-17T11:54:01;99817.44;;;7.88;74.59
69955;BME280;57279;55.912;37.490;2022-10-17T11:56:44;99818.28;;;7.88;74.56
69955;BME280;57279;55.912;37.490;2022-10-17T12:01:53;99809.00;;;7.72;75.32
69955;BME280;57279;55.912;37.490;2022-10-17T12:12:46;99825.03;;;7.79;75.81
69955;BME280;57279;55.912;37.490;2022-10-17T12:25:26;99831.72;;;7.88;76.37
69955;BME280;57279;55.912;37.490;2022-10-17T12:30:35;99858.50;;;7.95;76.09
69955;BME280;57279;55.912;37.490;2022-10-17T12:35:39;99840.13;;;7.92;76.60
69955;BME280;57279;55.912;37.490;2022-10-17T12:48:09;99881.19;;;7.99;76.53
69955;BME280;57279;55.912;37.490;2022-10-17T12:53:22;99888.13;;;8.18;76.00
69955;BME280;57279;55.912;37.490;2022-10-17T12:55:58;99891.97;;;8.11;76.16
69955;BME280;57279;55.912;37.490;2022-10-17T12:58:24;99904.75;;;8.15;76.36
69955;BME280;57279;55.912;37.490;2022-10-17T13:00:53;99901.25;;;8.15;76.42
69955;BME280;57279;55.912;37.490;2022-10-17T13:03:23;99908.59;;;8.08;76.73
69955;BME280;57279;55.912;37.490;2022-10-17T13:05:53;99909.97;;;8.10;76.72
69955;BME280;57279;55.912;37.490;2022-10-17T13:08:26;99908.09;;;8.11;76.81
69955;BME280;57279;55.912;37.490;2022-10-17T13:10:53;99924.03;;;8.24;76.48
69955;BME280;57279;55.912;37.490;2022-10-17T13:13:41;99916.09;;;8.17;76.39
69955;BME280;57279;55.912;37.490;2022-10-17T13:16:08;99911.50;;;8.06;76.89
69955;BME280;57279;55.912;37.490;2022-10-17T13:18:33;99910.19;;;7.97;77.64
69955;BME280;57279;55.912;37.490;2022-10-17T13:21:00;99902.56;;;7.94;77.74
69955;BME280;57279;55.912;37.490;2022-10-17T13:23:30;99900.81;;;7.99;77.65
69955;BME280;57279;55.912;37.490;2022-10-17T13:26:18;99901.91;;;8.10;77.32
69955;BME280;57279;55.912;37.490;2022-10-17T13:29:03;99880.19;;;8.23;77.14
69955;BME280;57279;55.912;37.490;2022-10-17T13:31:34;99871.44;;;8.28;76.75
69955;BME280;57279;55.912;37.490;2022-10-17T13:34:03;99872.25;;;8.29;76.51
69955;BME280;57279;55.912;37.490;2022-10-17T13:36:30;99859.25;;;8.37;76.29
69955;BME280;57279;55.912;37.490;2022-10-17T13:38:59;99856.00;;;8.47;75.93
69955;BME280;57279;55.912;37.490;2022-10-17T13:41:31;99851.47;;;8.48;75.99
69955;BME280;57279;55.912;37.490;2022-10-17T13:44:00;99837.53;;;8.51;75.75
69955;BME280;57279;55.912;37.490;2022-10-17T13:46:33;99834.84;;;8.51;75.72
69955;BME280;57279;55.912;37.490;2022-10-17T13:51:41;99835.09;;;8.61;75.36
69955;BME280;57279;55.912;37.490;2022-10-17T13:54:30;99825.28;;;8.55;75.48
69955;BME280;57279;55.912;37.490;2022-10-17T13:56:57;99828.78;;;8.55;75.39
69955;BME280;57279;55.912;37.490;2022-10-17T13:59:33;99816.72;;;8.46;75.53
69955;BME280;57279;55.912;37.490;2022-10-17T14:02:00;99809.22;;;8.48;75.06
69955;BME280;57279;55.912;37.490;2022-10-17T14:04:26;99819.75;;;8.50;75.46
69955;BME280;57279;55.912;37.490;2022-10-17T14:06:52;99828.88;;;8.49;75.42
69955;BME280;57279;55.912;37.490;2022-10-17T14:09:23;99827.25;;;8.48;75.28
69955;BME280;57279;55.912;37.490;2022-10-17T14:12:08;99830.50;;;8.38;75.72
69955;BME280;57279;55.912;37.490;2022-10-17T14:14:38;99819.19;;;8.48;75.72
69955;BME280;57279;55.912;37.490;2022-10-17T14:17:13;99829.13;;;8.59;75.14
69955;BME280;57279;55.912;37.490;2022-10-17T14:19:39;99829.59;;;8.56;75.23
69955;BME280;57279;55.912;37.490;2022-10-17T14:24:43;99824.34;;;8.49;75.28
69955;BME280;57279;55.912;37.490;2022-10-17T14:29:51;99829.13;;;8.59;75.20
69955;BME280;57279;55.912;37.490;2022-10-17T14:32:18;99834.84;;;8.63;75.13
69955;BME280;57279;55.912;37.490;2022-10-17T14:34:44;99827.56;;;8.39;75.64
69955;BME280;57279;55.912;37.490;2022-10-17T14:37:42;99832.63;;;8.48;75.71
69955;BME280;57279;55.912;37.490;2022-10-17T14:40:25;99828.41;;;8.52;75.63
69955;BME280;57279;55.912;37.490;2022-10-17T14:42:53;99803.63;;;8.50;75.68
69955;BME280;57279;55.912;37.490;2022-10-17T14:45:26;99813.81;;;8.48;75.97
69955;BME280;57279;55.912;37.490;2022-10-17T14:47:54;99815.66;;;8.47;75.81
69955;BME280;57279;55.912;37.490;2022-10-17T14:55:27;99829.22;;;8.40;76.05
69955;BME280;57279;55.912;37.490;2022-10-17T14:57:53;99861.38;;;8.35;75.96
69955;BME280;57279;55.912;37.490;2022-10-17T15:00:19;99840.06;;;8.22;76.98
69955;BME280;57279;55.912;37.490;2022-10-17T15:02:46;99840.28;;;8.20;76.79
69955;BME280;57279;55.912;37.490;2022-10-17T15:05:13;99842.44;;;8.30;76.60
69955;BME280;57279;55.912;37.490;2022-10-17T15:07:39;99851.19;;;8.26;76.85
69955;BME280;57279;55.912;37.490;2022-10-17T15:10:05;99858.22;;;8.38;76.40
69955;BME280;57279;55.912;37.490;2022-10-17T15:12:31;99857.09;;;8.46;75.96
69955;BME280;57279;55.912;37.490;2022-10-17T15:14:57;99869.38;;;8.54;75.96